Pickle Lake, Pickle Lake Airport (CYPL)

NamePickle Lake Airport
CityPickle Lake
CountryCanada
ICAOCYPL
IATAYPL
Altitude386 m
CoordinatesGoogle Map
Live Air TrafficLiveATC.net
METARCYPL 131500Z AUTO 19005KT 8SM -SN OVC042 M13/M15 A2980 RMK SLP128
2019-11-13 15:00:00 Wind: South (190°) 2.57 m/s - Visibility: 12874.72 m - Weather: Light Snow - Temperature: -13 °C - Dew point: -15 °C - Humidity: 85.1% - Pressure: 1009.14 hPa
Statistics

The table below shows the detailed information of all flights to/from Pickle Lake, Pickle Lake Airport (CYPL).